createdAt,value
2022-11-02T00:00:03.011Z,9.11
2022-11-02T00:01:03.021Z,9.12
2022-11-02T00:02:03.204Z,9.09
2022-11-02T00:03:03.340Z,9.11
2022-11-02T00:04:03.041Z,9.09
2022-11-02T00:05:03.051Z,9.08
2022-11-02T00:06:03.057Z,9.08
2022-11-02T00:07:03.065Z,9.07
2022-11-02T00:08:03.082Z,9.07
2022-11-02T00:09:03.075Z,9.09
2022-11-02T00:10:03.081Z,9.11
2022-11-02T00:11:03.090Z,9.10
2022-11-02T00:12:03.095Z,9.10
2022-11-02T00:13:03.362Z,9.10
2022-11-02T00:14:03.107Z,9.11
2022-11-02T00:15:03.116Z,9.11
2022-11-02T00:16:03.124Z,9.09
2022-11-02T00:17:03.131Z,9.11
2022-11-02T00:19:03.149Z,9.12
2022-11-02T00:20:03.165Z,9.13
2022-11-02T00:21:03.165Z,9.12
2022-11-02T00:22:03.176Z,9.17
2022-11-02T00:23:03.559Z,9.18
2022-11-02T00:24:03.189Z,9.18
2022-11-02T00:25:03.195Z,9.19
2022-11-02T00:26:03.198Z,9.21
2022-11-02T00:27:03.210Z,9.20
2022-11-02T00:28:03.220Z,9.21
2022-11-02T00:29:03.224Z,9.20
2022-11-02T00:30:03.231Z,9.21
2022-11-02T00:31:03.242Z,9.25
2022-11-02T00:32:03.248Z,9.21
2022-11-02T00:33:03.618Z,9.25
2022-11-02T00:34:03.268Z,9.23
2022-11-02T00:35:03.272Z,9.25
2022-11-02T00:36:03.282Z,9.25
2022-11-02T00:37:03.286Z,9.26
2022-11-02T00:38:03.596Z,9.26
2022-11-02T00:39:03.304Z,9.27
2022-11-02T00:40:03.314Z,9.28
2022-11-02T00:41:03.320Z,9.28
2022-11-02T00:42:03.326Z,9.31
2022-11-02T00:43:03.333Z,9.32
2022-11-02T00:44:03.346Z,9.34
2022-11-02T00:45:03.355Z,9.37
2022-11-02T00:46:03.360Z,9.40
2022-11-02T00:47:03.370Z,9.44
2022-11-02T00:48:03.554Z,9.47
2022-11-02T00:49:03.382Z,9.48
2022-11-02T00:50:03.387Z,9.49
2022-11-02T00:51:03.394Z,9.50
2022-11-02T00:52:03.401Z,9.51
2022-11-02T00:53:03.409Z,9.51
2022-11-02T00:54:03.430Z,9.52
2022-11-02T00:55:03.427Z,9.53
2022-11-02T00:56:03.439Z,9.53
2022-11-02T00:57:03.445Z,9.54
2022-11-02T00:58:03.684Z,9.54
2022-11-02T00:59:03.456Z,9.54
2022-11-02T01:00:03.464Z,9.54
2022-11-02T01:01:03.574Z,9.53
2022-11-02T01:02:03.598Z,9.55
2022-11-02T01:03:03.486Z,9.53
2022-11-02T01:04:03.495Z,9.52
2022-11-02T01:05:03.504Z,9.52
2022-11-02T01:06:03.513Z,9.52
2022-11-02T01:07:03.521Z,9.51
2022-11-02T01:08:03.780Z,9.51
2022-11-02T01:09:03.536Z,9.50
2022-11-02T01:10:03.549Z,9.50
2022-11-02T01:11:03.552Z,9.48
2022-11-02T01:12:03.558Z,9.47
2022-11-02T01:13:03.567Z,9.46
2022-11-02T01:14:03.572Z,9.47
2022-11-02T01:15:03.582Z,9.46
2022-11-02T01:16:03.587Z,9.48
2022-11-02T01:17:03.600Z,9.48
2022-11-02T01:18:03.908Z,9.48
2022-11-02T01:19:03.609Z,9.47
2022-11-02T01:20:03.623Z,9.48
2022-11-02T01:21:03.628Z,9.49
2022-11-02T01:22:03.639Z,9.50
2022-11-02T01:23:03.648Z,9.50
2022-11-02T01:24:03.656Z,9.50
2022-11-02T01:25:03.666Z,9.52
2022-11-02T01:26:03.671Z,9.53
2022-11-02T01:27:03.680Z,9.55
2022-11-02T01:28:03.920Z,9.55
2022-11-02T01:29:03.696Z,9.56
2022-11-02T01:30:03.709Z,9.56
2022-11-02T01:31:03.718Z,9.56
2022-11-02T01:32:03.726Z,9.55
2022-11-02T01:33:03.732Z,9.54
2022-11-02T01:34:03.742Z,9.52
2022-11-02T01:35:03.750Z,9.53
2022-11-02T01:36:03.758Z,9.50
2022-11-02T01:37:03.765Z,9.48
2022-11-02T01:38:04.023Z,9.46
2022-11-02T01:39:03.784Z,9.43
2022-11-02T01:40:03.789Z,9.44
2022-11-02T01:41:03.799Z,9.41
2022-11-02T01:42:03.808Z,9.39
2022-11-02T01:43:03.816Z,9.36
2022-11-02T01:44:03.835Z,9.35
2022-11-02T01:45:03.834Z,9.33
2022-11-02T01:46:03.844Z,9.32
2022-11-02T01:47:03.862Z,9.31
2022-11-02T01:48:04.212Z,9.31
2022-11-02T01:49:03.868Z,9.31
2022-11-02T01:50:03.877Z,9.29
2022-11-02T01:51:03.884Z,9.29
2022-11-02T01:52:03.897Z,9.30
2022-11-02T01:53:03.905Z,9.29
2022-11-02T01:54:03.915Z,9.33
2022-11-02T01:55:03.922Z,9.34
2022-11-02T01:56:03.931Z,9.36
2022-11-02T02:14:04.439Z,9.70
2022-11-02T02:15:04.094Z,9.75
2022-11-02T02:16:04.098Z,9.77
2022-11-02T02:17:04.108Z,9.79
2022-11-02T02:18:04.419Z,9.85
2022-11-02T02:19:04.119Z,9.87
2022-11-02T02:20:04.123Z,9.90
2022-11-02T02:21:04.133Z,9.96
2022-11-02T02:22:04.143Z,9.98
2022-11-02T02:23:04.152Z,10.02
2022-11-02T02:24:04.158Z,10.02
2022-11-02T02:25:04.165Z,10.04
2022-11-02T02:26:04.170Z,10.05
2022-11-02T02:27:04.177Z,10.10
2022-11-02T02:28:04.392Z,10.11
2022-11-02T02:29:04.199Z,10.13
2022-11-02T02:30:04.208Z,10.16
2022-11-02T02:31:04.216Z,10.17
2022-11-02T02:32:04.223Z,10.20
2022-11-02T02:33:04.222Z,10.21
2022-11-02T02:34:04.238Z,10.24
2022-11-02T02:35:04.243Z,10.27
2022-11-02T02:36:04.251Z,10.32
2022-11-02T02:37:04.260Z,10.36
2022-11-02T02:38:04.508Z,10.42
2022-11-02T02:39:04.279Z,10.45
2022-11-02T02:40:04.363Z,10.49
2022-11-02T02:41:04.299Z,10.53
2022-11-02T02:42:04.304Z,10.57
2022-11-02T02:43:04.312Z,10.62
2022-11-02T02:44:04.318Z,10.66
2022-11-02T02:45:04.329Z,10.66
2022-11-02T02:46:04.336Z,10.69
2022-11-02T02:47:04.341Z,10.71
2022-11-02T02:48:04.722Z,10.73
2022-11-02T02:49:04.359Z,10.75
2022-11-02T02:50:04.366Z,10.80
2022-11-02T02:51:04.379Z,10.81
2022-11-02T02:52:04.381Z,10.83
2022-11-02T02:53:04.391Z,10.86
2022-11-02T02:54:04.404Z,10.89
2022-11-02T02:55:04.411Z,10.93
2022-11-02T02:56:04.449Z,10.95
2022-11-02T02:57:04.431Z,10.97
2022-11-02T02:58:04.613Z,11.00
2022-11-02T02:59:04.452Z,11.01
2022-11-02T03:00:04.462Z,11.02
2022-11-02T03:01:04.471Z,11.07
2022-11-02T03:02:04.552Z,11.07
2022-11-02T03:03:04.483Z,11.08
2022-11-02T03:04:04.503Z,11.09
2022-11-02T03:05:04.508Z,11.13
2022-11-02T03:06:04.540Z,11.13
2022-11-02T03:07:04.529Z,11.15
2022-11-02T03:08:04.795Z,11.16
2022-11-02T03:09:04.544Z,11.17
2022-11-02T03:10:04.581Z,11.17
2022-11-02T03:11:04.560Z,11.20
2022-11-02T03:12:04.569Z,11.21
2022-11-02T03:13:04.577Z,11.23
2022-11-02T03:14:04.583Z,11.25
2022-11-02T03:15:04.591Z,11.27
2022-11-02T03:16:04.595Z,11.29
2022-11-02T03:17:04.607Z,11.31
2022-11-02T03:18:04.716Z,11.31
2022-11-02T03:19:04.618Z,11.31
2022-11-02T03:20:04.622Z,11.30
2022-11-02T03:21:04.629Z,11.29
2022-11-02T03:22:04.638Z,11.28
2022-11-02T03:23:04.642Z,11.28
2022-11-02T03:24:04.648Z,11.29
2022-11-02T03:25:04.657Z,11.30
2022-11-02T03:26:04.667Z,11.30
2022-11-02T03:27:04.675Z,11.27
2022-11-02T03:28:04.941Z,11.26
2022-11-02T03:29:04.687Z,11.27
2022-11-02T03:30:04.699Z,11.26
2022-11-02T03:31:04.694Z,11.25
2022-11-02T03:32:04.699Z,11.24
2022-11-02T03:33:04.706Z,11.23
2022-11-02T03:34:04.720Z,11.24
2022-11-02T03:35:04.727Z,11.24
2022-11-02T03:36:04.739Z,11.22
2022-11-02T03:37:04.811Z,11.21
2022-11-02T03:38:04.993Z,11.21
2022-11-02T03:39:04.759Z,11.22
2022-11-02T03:40:04.769Z,11.20
2022-11-02T03:41:04.774Z,11.19
2022-11-02T03:42:04.785Z,11.18
2022-11-02T03:43:04.795Z,11.18
2022-11-02T03:44:04.805Z,11.16
2022-11-02T03:45:04.815Z,11.16
2022-11-02T03:46:04.822Z,11.15
2022-11-02T03:47:04.832Z,11.14
2022-11-02T03:48:05.060Z,11.10
2022-11-02T03:49:07.547Z,11.09
2022-11-02T03:50:04.867Z,11.05
2022-11-02T03:51:04.873Z,11.05
2022-11-02T03:52:04.884Z,11.02
2022-11-02T03:53:04.903Z,11.01
2022-11-02T03:54:04.895Z,10.99
2022-11-02T03:55:04.934Z,10.99
2022-11-02T03:56:04.914Z,10.97
2022-11-02T03:58:05.145Z,10.96
2022-11-02T03:59:04.941Z,10.95
2022-11-02T04:00:04.951Z,10.96
2022-11-02T04:01:04.967Z,10.95
2022-11-02T04:02:05.101Z,10.92
2022-11-02T04:03:04.970Z,10.91
2022-11-02T04:04:04.976Z,10.92
2022-11-02T04:05:04.981Z,10.91
2022-11-02T04:06:04.987Z,10.94
2022-11-02T04:07:04.992Z,10.93
2022-11-02T04:08:05.202Z,10.92
2022-11-02T04:09:05.011Z,10.93
2022-11-02T04:10:05.019Z,10.93
2022-11-02T04:11:05.028Z,10.92
2022-11-02T04:12:05.037Z,10.95
2022-11-02T04:13:05.050Z,10.96
2022-11-02T04:14:05.055Z,10.95
2022-11-02T04:15:05.063Z,10.94
2022-11-02T04:16:05.070Z,10.94
2022-11-02T04:17:05.075Z,10.92
2022-11-02T04:18:05.301Z,10.90
2022-11-02T04:19:05.098Z,10.88
2022-11-02T04:20:05.108Z,10.86
2022-11-02T04:21:05.116Z,10.84
2022-11-02T04:22:05.124Z,10.84
2022-11-02T04:23:05.137Z,10.83
2022-11-02T04:24:05.149Z,10.81
2022-11-02T04:25:05.158Z,10.82
2022-11-02T04:26:05.170Z,10.80
2022-11-02T04:27:05.175Z,10.78
2022-11-02T04:28:05.589Z,10.78
2022-11-02T04:29:05.195Z,10.78
2022-11-02T04:30:05.206Z,10.78
2022-11-02T04:31:05.215Z,10.79
2022-11-02T04:32:05.229Z,10.74
2022-11-02T04:33:05.239Z,10.75
2022-11-02T04:34:05.250Z,10.75
2022-11-02T04:35:05.259Z,10.74
2022-11-02T04:36:05.272Z,10.73
2022-11-02T04:37:05.276Z,10.71
2022-11-02T04:38:05.560Z,10.70
2022-11-02T04:39:05.291Z,10.69
2022-11-02T04:40:05.299Z,10.65
2022-11-02T04:41:05.308Z,10.63
2022-11-02T04:42:05.320Z,10.57
2022-11-02T04:43:05.331Z,10.58
2022-11-02T04:44:05.342Z,10.55
2022-11-02T04:45:05.348Z,10.55
2022-11-02T04:46:05.360Z,10.56
2022-11-02T04:47:05.359Z,10.56
2022-11-02T04:48:05.647Z,10.57
2022-11-02T04:49:05.374Z,10.59
2022-11-02T04:50:05.387Z,10.58
2022-11-02T04:51:05.395Z,10.58
2022-11-02T04:52:05.403Z,10.56
2022-11-02T04:53:05.416Z,10.53
2022-11-02T04:54:05.422Z,10.51
2022-11-02T04:55:05.427Z,10.51
2022-11-02T04:56:05.436Z,10.49
2022-11-02T04:57:05.447Z,10.49
2022-11-02T04:58:05.814Z,10.46
2022-11-02T04:59:05.467Z,10.46
2022-11-02T05:00:05.480Z,10.42
2022-11-02T05:01:05.490Z,10.39
2022-11-02T05:02:05.614Z,10.36
2022-11-02T05:03:06.856Z,10.33
2022-11-02T05:04:05.518Z,10.27
2022-11-02T05:05:05.527Z,10.20
2022-11-02T05:06:05.538Z,10.17
2022-11-02T05:07:05.547Z,10.13
2022-11-02T05:08:06.010Z,10.11
2022-11-02T05:09:05.568Z,10.09
2022-11-02T05:10:05.577Z,10.10
2022-11-02T05:11:05.587Z,10.10
2022-11-02T05:12:05.599Z,10.11
2022-11-02T05:13:05.612Z,10.11
2022-11-02T05:14:05.620Z,10.13
2022-11-02T05:15:05.630Z,10.15
2022-11-02T05:16:05.637Z,10.14
2022-11-02T05:17:05.648Z,10.17
2022-11-02T05:18:06.052Z,10.17
2022-11-02T05:19:06.947Z,10.19
2022-11-02T05:20:05.672Z,10.20
2022-11-02T05:21:05.678Z,10.21
2022-11-02T05:22:05.688Z,10.24
2022-11-02T05:23:06.043Z,10.27
2022-11-02T05:24:05.711Z,10.27
2022-11-02T05:25:05.721Z,10.26
2022-11-02T05:26:05.730Z,10.27
2022-11-02T05:27:05.737Z,10.27
2022-11-02T05:28:05.750Z,10.24
2022-11-02T05:29:05.759Z,10.22
2022-11-02T05:30:05.767Z,10.23
2022-11-02T05:31:05.778Z,10.23
2022-11-02T05:32:05.789Z,10.27
2022-11-02T05:33:06.061Z,10.26
2022-11-02T05:34:05.810Z,10.28
2022-11-02T05:35:05.822Z,10.28
2022-11-02T05:36:05.832Z,10.30
2022-11-02T05:37:05.843Z,10.30
2022-11-02T05:38:05.851Z,10.30
2022-11-02T05:39:05.861Z,10.31
2022-11-02T05:40:05.873Z,10.30
2022-11-02T05:41:05.886Z,10.32
2022-11-02T05:42:05.896Z,10.31
2022-11-02T05:43:06.182Z,10.29
2022-11-02T05:44:05.924Z,10.30
2022-11-02T05:45:05.932Z,10.28
2022-11-02T05:46:05.944Z,10.23
2022-11-02T05:47:05.955Z,10.20
2022-11-02T05:48:05.966Z,10.18
2022-11-02T05:49:05.979Z,10.16
2022-11-02T05:50:05.992Z,10.16
2022-11-02T05:51:06.007Z,10.15
2022-11-02T05:52:06.011Z,10.15
2022-11-02T05:53:06.150Z,10.16
2022-11-02T05:54:06.027Z,10.16
2022-11-02T05:55:06.037Z,10.16
2022-11-02T05:56:06.040Z,10.17
2022-11-02T05:57:06.048Z,10.16
2022-11-02T05:58:06.056Z,10.13
2022-11-02T05:59:06.066Z,10.12
2022-11-02T06:00:06.077Z,10.08
2022-11-02T06:01:06.102Z,10.08
2022-11-02T06:02:06.096Z,10.04
2022-11-02T06:03:06.445Z,10.02
2022-11-02T06:04:06.145Z,10.01
2022-11-02T06:05:06.213Z,9.98
2022-11-02T06:06:06.129Z,9.97
2022-11-02T06:07:06.139Z,9.97
2022-11-02T06:08:06.147Z,9.95
2022-11-02T06:09:07.407Z,9.94
2022-11-02T06:10:06.161Z,9.94
2022-11-02T06:11:06.170Z,9.98
2022-11-02T06:12:06.178Z,9.98
2022-11-02T06:13:06.414Z,9.99
2022-11-02T06:14:06.205Z,9.97
2022-11-02T06:15:06.211Z,9.98
2022-11-02T06:16:06.237Z,9.98
2022-11-02T06:17:06.227Z,10.03
2022-11-02T06:18:06.238Z,10.02
2022-11-02T06:19:06.271Z,10.01
2022-11-02T06:20:06.251Z,10.03
2022-11-02T06:21:06.272Z,10.04
2022-11-02T06:22:06.288Z,10.11
2022-11-02T06:23:06.673Z,10.14
2022-11-02T06:24:06.287Z,10.17
2022-11-02T06:25:06.300Z,10.21
2022-11-02T06:26:06.309Z,10.26
2022-11-02T06:27:06.320Z,10.31
2022-11-02T06:28:06.327Z,10.36
2022-11-02T06:29:06.344Z,10.42
2022-11-02T06:30:06.349Z,10.45
2022-11-02T06:31:06.357Z,10.49
2022-11-02T06:32:06.367Z,10.50
2022-11-02T06:33:07.309Z,10.55
2022-11-02T06:34:06.382Z,10.57
2022-11-02T06:35:06.398Z,10.58
2022-11-02T06:36:06.405Z,10.63
2022-11-02T06:37:06.415Z,10.67
2022-11-02T06:38:06.438Z,10.71
2022-11-02T06:39:06.440Z,10.73
2022-11-02T06:40:06.450Z,10.74
2022-11-02T06:41:06.457Z,10.75
2022-11-02T06:42:06.463Z,10.74
2022-11-02T06:44:06.489Z,10.73
2022-11-02T06:45:06.494Z,10.67
2022-11-02T06:46:06.508Z,10.65
2022-11-02T06:47:06.524Z,10.63
2022-11-02T06:48:06.522Z,10.64
2022-11-02T06:49:06.536Z,10.62
2022-11-02T06:50:06.545Z,10.63
2022-11-02T06:51:06.559Z,10.62
2022-11-02T06:52:06.572Z,10.60
2022-11-02T06:53:06.927Z,10.60
2022-11-02T06:54:08.741Z,10.57
2022-11-02T06:55:06.594Z,10.55
2022-11-02T06:56:06.602Z,10.51
2022-11-02T06:57:06.614Z,10.48
2022-11-02T06:58:06.625Z,10.43
2022-11-02T06:59:06.633Z,10.40
2022-11-02T07:00:06.835Z,10.33
2022-11-02T07:01:06.747Z,10.28
2022-11-02T07:02:06.784Z,10.23
2022-11-02T07:03:07.002Z,10.21
2022-11-02T07:04:06.678Z,10.20
2022-11-02T07:05:06.678Z,10.22
2022-11-02T07:06:11.229Z,10.21
2022-11-02T07:07:06.708Z,10.23
2022-11-02T07:08:06.715Z,10.23
2022-11-02T07:09:06.727Z,10.25
2022-11-02T07:10:06.746Z,10.27
2022-11-02T07:11:06.743Z,10.29
2022-11-02T07:12:06.758Z,10.29
2022-11-02T07:13:07.043Z,10.33
2022-11-02T07:14:06.773Z,10.36
2022-11-02T07:15:06.779Z,10.45
2022-11-02T07:16:06.791Z,10.53
2022-11-02T07:17:06.799Z,10.62
2022-11-02T07:18:06.813Z,10.72
2022-11-02T07:19:06.824Z,10.76
2022-11-02T07:20:06.833Z,10.84
2022-11-02T07:21:06.882Z,10.92
2022-11-02T07:22:06.856Z,10.98
2022-11-02T07:23:07.177Z,11.04
2022-11-02T07:24:06.879Z,11.11
2022-11-02T07:25:06.895Z,11.16
2022-11-02T07:26:06.905Z,11.20
2022-11-02T07:27:06.927Z,11.25
2022-11-02T07:28:06.928Z,11.30
2022-11-02T07:29:06.926Z,11.36
2022-11-02T07:30:06.941Z,11.40
2022-11-02T07:31:06.951Z,11.50
2022-11-02T07:32:06.960Z,11.52
2022-11-02T07:33:07.377Z,11.58
2022-11-02T07:34:06.974Z,11.63
2022-11-02T07:35:06.988Z,11.69
2022-11-02T07:36:07.003Z,11.74
2022-11-02T07:37:07.013Z,11.77
2022-11-02T07:38:07.024Z,11.80
2022-11-02T07:39:07.030Z,11.85
2022-11-02T07:40:07.038Z,11.87
2022-11-02T07:41:07.050Z,11.87
2022-11-02T07:42:07.075Z,11.90
2022-11-02T07:43:07.431Z,11.92
2022-11-02T07:44:07.079Z,11.96
2022-11-02T07:45:07.089Z,12.01
2022-11-02T07:46:07.101Z,12.03
2022-11-02T07:47:07.107Z,12.08
2022-11-02T07:48:07.115Z,12.10
2022-11-02T07:49:07.128Z,12.12
2022-11-02T07:50:07.133Z,12.13
2022-11-02T07:51:07.135Z,12.14
2022-11-02T07:52:07.142Z,12.17
2022-11-02T07:53:07.420Z,12.19
2022-11-02T07:54:07.156Z,12.23
2022-11-02T07:55:07.173Z,12.26
2022-11-02T07:56:07.179Z,12.29
2022-11-02T07:57:07.195Z,12.31
2022-11-02T07:58:07.200Z,12.34
2022-11-02T07:59:07.200Z,12.35
2022-11-02T08:00:07.206Z,12.37
2022-11-02T08:01:07.222Z,12.40
2022-11-02T08:02:07.232Z,12.45
2022-11-02T08:03:07.615Z,12.49
2022-11-02T08:04:07.245Z,12.53
2022-11-02T08:05:07.253Z,12.58
2022-11-02T08:06:07.257Z,12.63
2022-11-02T08:07:07.265Z,12.66
2022-11-02T08:08:07.623Z,12.68
2022-11-02T08:09:07.280Z,12.70
2022-11-02T08:10:07.320Z,12.73
2022-11-02T08:11:07.300Z,12.75
2022-11-02T08:12:07.313Z,12.75
2022-11-02T08:13:07.319Z,12.76
2022-11-02T08:14:07.330Z,12.79
2022-11-02T08:15:07.780Z,12.83
2022-11-02T08:16:07.354Z,12.90
2022-11-02T08:17:07.371Z,12.91
2022-11-02T08:18:07.789Z,12.96
2022-11-02T08:19:07.386Z,13.01
2022-11-02T08:20:07.393Z,13.06
2022-11-02T08:21:07.405Z,13.10
2022-11-02T08:22:07.412Z,13.11
2022-11-02T08:23:07.479Z,13.11
2022-11-02T08:24:07.438Z,13.12
2022-11-02T08:25:07.485Z,13.16
2022-11-02T08:26:07.457Z,13.18
2022-11-02T08:27:07.465Z,13.16
2022-11-02T08:28:07.936Z,13.18
2022-11-02T08:29:07.482Z,13.20
2022-11-02T08:30:07.495Z,13.23
2022-11-02T08:31:07.502Z,13.26
2022-11-02T08:32:07.509Z,13.25
2022-11-02T08:33:07.519Z,13.28
2022-11-02T08:34:07.531Z,13.28
2022-11-02T08:35:07.543Z,13.30
2022-11-02T08:36:07.557Z,13.33
2022-11-02T08:37:07.565Z,13.34
2022-11-02T08:38:08.043Z,13.35
2022-11-02T08:39:07.580Z,13.32
2022-11-02T08:40:07.587Z,13.34
2022-11-02T08:41:07.598Z,13.31
2022-11-02T08:42:07.607Z,13.30
2022-11-02T08:43:07.623Z,13.33
2022-11-02T08:44:07.632Z,13.36
2022-11-02T08:45:07.636Z,13.34
2022-11-02T08:46:16.318Z,13.29
2022-11-02T08:47:09.272Z,13.24
2022-11-02T08:48:07.822Z,13.22
2022-11-02T08:49:07.689Z,13.11
2022-11-02T08:50:07.700Z,13.03
2022-11-02T08:51:07.706Z,12.98
2022-11-02T08:52:07.714Z,12.94
2022-11-02T08:53:07.717Z,12.92
2022-11-02T08:54:07.726Z,12.96
2022-11-02T08:55:07.733Z,12.93
2022-11-02T08:56:07.745Z,12.95
2022-11-02T08:57:07.743Z,13.02
2022-11-02T08:58:08.029Z,13.09
2022-11-02T08:59:07.756Z,13.18
2022-11-02T09:00:07.761Z,13.26
2022-11-02T09:01:07.775Z,13.36
2022-11-02T09:02:07.851Z,13.43
2022-11-02T09:03:07.920Z,13.41
2022-11-02T09:04:07.816Z,13.44
2022-11-02T09:05:07.834Z,13.48
2022-11-02T09:06:07.840Z,13.56
2022-11-02T09:07:07.848Z,13.60
2022-11-02T09:08:08.142Z,13.64
2022-11-02T09:09:07.870Z,13.67
2022-11-02T09:10:07.884Z,13.72
2022-11-02T09:11:07.893Z,13.76
2022-11-02T09:12:07.899Z,13.85
2022-11-02T09:13:08.324Z,13.92
2022-11-02T09:14:08.003Z,13.92
2022-11-02T09:15:07.933Z,13.91
2022-11-02T09:16:07.943Z,13.93
2022-11-02T09:17:07.953Z,13.91
2022-11-02T09:18:08.219Z,13.90
2022-11-02T09:19:07.968Z,13.81
2022-11-02T09:20:07.972Z,13.79
2022-11-02T09:21:07.979Z,13.73
2022-11-02T09:22:07.991Z,13.72
2022-11-02T09:23:08.007Z,13.68
2022-11-02T09:24:08.016Z,13.65
2022-11-02T09:25:08.023Z,13.63
2022-11-02T09:26:08.031Z,13.54
2022-11-02T09:27:08.043Z,13.49
2022-11-02T09:28:08.347Z,13.51
2022-11-02T09:29:08.060Z,13.51
2022-11-02T09:30:08.076Z,13.56
2022-11-02T09:31:10.511Z,13.67
2022-11-02T09:32:08.086Z,13.73
2022-11-02T09:33:08.372Z,13.76
2022-11-02T09:34:08.108Z,13.77
2022-11-02T09:35:08.127Z,13.83
2022-11-02T09:36:08.132Z,13.88
2022-11-02T09:37:08.139Z,13.91
2022-11-02T09:38:08.147Z,13.89
2022-11-02T09:39:08.160Z,13.85
2022-11-02T09:40:08.164Z,13.83
2022-11-02T09:41:08.177Z,13.82
2022-11-02T09:42:08.183Z,13.86
2022-11-02T09:43:08.525Z,13.81
2022-11-02T09:44:08.204Z,13.84
2022-11-02T09:45:08.217Z,13.81
2022-11-02T09:46:08.231Z,13.81
2022-11-02T09:48:17.011Z,13.76
2022-11-02T09:49:08.259Z,13.70
2022-11-02T09:50:08.269Z,13.66
2022-11-02T09:51:08.285Z,13.59
2022-11-02T09:52:08.298Z,13.53
2022-11-02T09:53:08.300Z,13.50
2022-11-02T09:54:10.473Z,13.47
2022-11-02T09:55:08.322Z,13.45
2022-11-02T09:56:08.332Z,13.44
2022-11-02T09:57:08.339Z,13.43
2022-11-02T09:58:08.350Z,13.39
2022-11-02T09:59:08.364Z,13.41
2022-11-02T10:00:08.371Z,13.36
2022-11-02T10:01:08.449Z,13.33
2022-11-02T10:02:08.387Z,13.31
2022-11-02T10:03:08.440Z,13.31
2022-11-02T10:04:08.410Z,13.26
2022-11-02T10:05:08.417Z,13.23
2022-11-02T10:06:08.426Z,13.24
2022-11-02T10:07:08.431Z,13.26
2022-11-02T10:08:08.528Z,13.27
2022-11-02T10:09:08.453Z,13.30
2022-11-02T10:10:08.468Z,13.26
2022-11-02T10:11:08.578Z,13.22
2022-11-02T10:12:08.482Z,13.12
2022-11-02T10:13:08.492Z,13.06
2022-11-02T10:14:08.504Z,13.01
2022-11-02T10:15:08.517Z,12.94
2022-11-02T10:16:08.534Z,12.69
2022-11-02T10:17:08.541Z,12.55
2022-11-02T10:18:08.552Z,12.40
2022-11-02T10:19:08.566Z,12.32
2022-11-02T10:20:08.574Z,12.27
2022-11-02T10:21:08.580Z,12.20
2022-11-02T10:22:08.600Z,12.17
2022-11-02T10:23:08.606Z,12.10
2022-11-02T10:24:08.611Z,12.05
2022-11-02T10:25:08.616Z,12.00
2022-11-02T10:26:08.622Z,11.90
2022-11-02T10:27:13.118Z,11.83
2022-11-02T10:28:08.667Z,11.77
2022-11-02T10:29:08.647Z,11.66
2022-11-02T10:30:08.656Z,11.60
2022-11-02T10:31:11.782Z,11.51
2022-11-02T10:32:08.672Z,11.51
2022-11-02T10:33:08.682Z,11.46
2022-11-02T10:34:08.686Z,11.45
2022-11-02T10:35:26.249Z,11.31
2022-11-02T10:37:08.709Z,11.25
2022-11-02T10:38:13.664Z,11.24
2022-11-02T10:39:08.739Z,11.20
2022-11-02T10:40:08.749Z,11.17
2022-11-02T10:41:08.763Z,11.15
2022-11-02T10:42:08.772Z,11.14
2022-11-02T10:43:08.783Z,11.03
2022-11-02T10:44:08.801Z,10.92
2022-11-02T10:45:08.812Z,10.78
2022-11-02T10:46:08.817Z,10.71
2022-11-02T10:47:08.832Z,10.67
2022-11-02T10:48:08.847Z,10.65
2022-11-02T10:49:08.862Z,10.62
2022-11-02T10:50:12.214Z,10.64
2022-11-02T10:51:08.886Z,10.65
2022-11-02T10:52:08.903Z,10.67
2022-11-02T10:53:35.006Z,10.66
2022-11-02T10:54:08.923Z,10.73
2022-11-02T10:55:08.943Z,10.79
2022-11-02T10:56:08.951Z,10.92
2022-11-02T10:57:08.961Z,11.03
2022-11-02T10:58:08.975Z,11.19
2022-11-02T10:59:08.992Z,11.33
2022-11-02T11:00:09.006Z,11.40
2022-11-02T11:01:09.210Z,11.49
2022-11-02T11:02:09.071Z,11.58
2022-11-02T11:03:09.035Z,11.64
2022-11-02T11:04:09.047Z,11.71
2022-11-02T11:05:09.060Z,11.80
2022-11-02T11:06:09.076Z,11.94
2022-11-02T11:07:09.090Z,12.05
2022-11-02T11:08:09.104Z,12.16
2022-11-02T11:09:09.121Z,12.22
2022-11-02T11:10:09.125Z,12.26
2022-11-02T11:11:09.140Z,12.30
2022-11-02T11:12:09.146Z,12.38
2022-11-02T11:16:10.500Z,12.99
2022-11-02T11:20:09.218Z,13.20
2022-11-02T11:21:09.228Z,13.23
2022-11-02T11:22:09.235Z,13.22
2022-11-02T11:23:09.251Z,13.17
2022-11-02T11:24:09.313Z,13.14
2022-11-02T11:25:09.277Z,13.13
2022-11-02T11:26:09.284Z,13.11
2022-11-02T11:27:09.288Z,13.16
2022-11-02T11:28:09.300Z,13.19
2022-11-02T11:29:09.305Z,13.19
2022-11-02T11:30:09.311Z,13.30
2022-11-02T11:31:09.324Z,13.37
2022-11-02T11:32:09.336Z,13.45
2022-11-02T11:33:09.340Z,13.49
2022-11-02T11:34:09.351Z,13.45
2022-11-02T11:35:09.366Z,13.46
2022-11-02T11:36:09.373Z,13.47
2022-11-02T11:37:09.400Z,13.48
2022-11-02T11:38:09.398Z,13.37
2022-11-02T11:39:09.418Z,13.32
2022-11-02T11:40:09.423Z,13.26
2022-11-02T11:41:09.436Z,13.21
2022-11-02T11:42:09.448Z,13.18
2022-11-02T11:43:09.462Z,13.13
2022-11-02T11:44:09.471Z,13.10
2022-11-02T11:45:09.481Z,13.08
2022-11-02T11:46:09.532Z,13.07
2022-11-02T11:47:09.500Z,13.07
2022-11-02T11:48:09.513Z,13.07
2022-11-02T11:49:09.527Z,13.10
2022-11-02T11:50:11.776Z,13.19
2022-11-02T11:51:09.563Z,13.13
2022-11-02T11:52:09.582Z,13.11
2022-11-02T11:53:09.584Z,13.04
2022-11-02T11:54:09.594Z,13.09
2022-11-02T11:55:09.597Z,13.11
2022-11-02T11:56:12.601Z,13.12
2022-11-02T11:57:09.628Z,13.11
2022-11-02T11:58:09.644Z,13.09
2022-11-02T11:59:09.647Z,13.01
2022-11-02T12:00:09.652Z,12.97
2022-11-02T12:01:10.996Z,12.86
2022-11-02T12:02:10.362Z,12.82
2022-11-02T12:03:10.100Z,12.79
2022-11-02T12:04:09.702Z,12.78
2022-11-02T12:05:09.718Z,12.77
2022-11-02T12:06:09.727Z,12.73
2022-11-02T12:07:09.736Z,12.76
2022-11-02T12:08:10.088Z,12.80
2022-11-02T12:09:09.757Z,12.89
2022-11-02T12:10:09.770Z,12.94
2022-11-02T12:11:11.746Z,13.00
2022-11-02T12:12:09.794Z,12.96
2022-11-02T12:13:09.807Z,12.84
2022-11-02T12:14:09.821Z,12.82
2022-11-02T12:15:09.829Z,12.73
2022-11-02T12:16:09.831Z,12.72
2022-11-02T12:17:09.847Z,12.71
2022-11-02T12:18:09.864Z,12.64
2022-11-02T12:19:09.877Z,12.60
2022-11-02T12:20:09.886Z,12.53
2022-11-02T12:21:09.886Z,12.49
2022-11-02T12:22:09.895Z,12.46
2022-11-02T12:23:09.906Z,12.43
2022-11-02T12:24:09.913Z,12.38
2022-11-02T12:25:09.930Z,12.36
2022-11-02T12:26:09.930Z,12.27
2022-11-02T12:27:09.945Z,12.27
2022-11-02T12:28:09.955Z,12.30
2022-11-02T12:29:09.960Z,12.24
2022-11-02T12:30:09.972Z,12.24
2022-11-02T12:31:09.979Z,12.25
2022-11-02T12:32:09.986Z,12.22
2022-11-02T12:33:10.001Z,12.25
2022-11-02T12:34:10.027Z,12.23
2022-11-02T12:36:10.046Z,12.37
2022-11-02T12:37:33.017Z,12.42
2022-11-02T12:38:10.063Z,12.46
2022-11-02T12:39:10.073Z,12.60
2022-11-02T12:40:10.120Z,12.74
2022-11-02T12:41:10.094Z,12.81
2022-11-02T12:42:10.105Z,12.83
2022-11-02T12:43:10.114Z,12.91
2022-11-02T12:44:10.122Z,13.00
2022-11-02T12:45:10.143Z,13.09
2022-11-02T12:46:10.143Z,13.13
2022-11-02T12:47:10.157Z,13.13
2022-11-02T12:48:10.162Z,13.08
2022-11-02T12:49:10.178Z,13.14
2022-11-02T12:50:10.185Z,13.17
2022-11-02T12:51:10.195Z,13.14
2022-11-02T12:52:10.206Z,13.07
2022-11-02T12:53:10.209Z,13.12
2022-11-02T12:54:10.217Z,13.15
2022-11-02T12:55:14.576Z,13.23
2022-11-02T12:56:10.243Z,13.27
2022-11-02T12:57:10.256Z,13.22
2022-11-02T12:58:10.276Z,13.19
2022-11-02T12:59:10.302Z,13.13
2022-11-02T13:00:10.295Z,13.10
2022-11-02T13:01:13.599Z,13.14
2022-11-02T13:02:10.344Z,13.20
2022-11-02T13:03:10.333Z,13.21
2022-11-02T13:04:10.341Z,13.28
2022-11-02T13:05:10.364Z,13.37
2022-11-02T13:06:10.366Z,13.43
2022-11-02T13:07:10.425Z,13.55
2022-11-02T13:08:10.390Z,13.55
2022-11-02T13:09:10.405Z,13.68
2022-11-02T13:10:10.412Z,13.74
2022-11-02T13:11:10.426Z,13.82
2022-11-02T13:12:10.432Z,13.85
2022-11-02T13:13:10.438Z,13.90
2022-11-02T13:14:14.386Z,13.93
2022-11-02T13:15:12.174Z,14.11
2022-11-02T13:16:10.468Z,14.15
2022-11-02T13:17:10.471Z,14.17
2022-11-02T13:18:10.488Z,14.25
2022-11-02T13:19:10.501Z,14.31
2022-11-02T13:20:10.518Z,14.24
2022-11-02T13:21:10.526Z,14.20
2022-11-02T13:22:10.540Z,14.21
2022-11-02T13:23:10.556Z,14.07
2022-11-02T13:24:10.560Z,14.00
2022-11-02T13:25:10.578Z,13.95
2022-11-02T13:26:10.584Z,13.92